Time,TemperatureF,DewpointF,PressureIn,WindDirection,WindDirectionDegrees,WindSpeedMPH,WindSpeedGustMPH,Humidity,HourlyPrecipIn,Conditions,Clouds,dailyrainin,SolarRadiationWatts/m^2,SoftwareType,DateUTC
2013-07-09 00:04:00,59.0,39.3,29.91,NW,315,3.0,4.0,48,0.00,,,0.00,0,Wunderground v.1.15,2013-07-09 06:04:00,
2013-07-09 00:10:00,58.7,39.0,29.91,NW,317,4.0,4.0,48,0.00,,,0.00,0,Wunderground v.1.15,2013-07-09 06:10:00,
2013-07-09 00:16:00,58.6,39.0,29.91,NW,317,3.0,4.0,48,0.00,,,0.00,0,Wunderground v.1.15,2013-07-09 06:16:00,
2013-07-09 00:22:00,58.6,39.0,29.91,SE,128,2.0,3.0,48,0.00,,,0.00,0,Wunderground v.1.15,2013-07-09 06:22:00,
2013-07-09 00:28:00,58.4,40.3,29.91,ESE,104,2.0,6.0,51,0.00,,,0.00,0,Wunderground v.1.15,2013-07-09 06:28:00,
2013-07-09 00:34:00,58.3,40.2,29.91,ESE,107,2.0,2.0,51,0.00,,,0.00,0,Wunderground v.1.15,2013-07-09 06:34:00,
2013-07-09 00:40:00,58.2,40.1,29.91,ESE,107,0.0,0.0,51,0.00,,,0.00,0,Wunderground v.1.15,2013-07-09 06:40:00,
2013-07-09 00:48:00,57.9,40.9,29.91,ESE,107,0.0,0.0,53,0.00,,,0.00,0,Wunderground v.1.15,2013-07-09 06:48:00,
2013-07-09 00:54:00,57.2,40.7,29.92,ESE,103,1.0,3.0,54,0.00,,,0.00,0,Wunderground v.1.15,2013-07-09 06:54:00,
2013-07-09 01:00:00,56.5,41.0,29.92,ESE,103,1.0,1.0,56,0.00,,,0.00,0,Wunderground v.1.15,2013-07-09 07:00:00,
2013-07-09 01:08:00,55.7,40.7,29.92,ESE,103,1.0,2.0,57,0.00,,,0.00,0,Wunderground v.1.15,2013-07-09 07:08:00,
2013-07-09 01:14:00,55.3,40.8,29.93,ESE,103,0.0,1.0,58,0.00,,,0.00,0,Wunderground v.1.15,2013-07-09 07:14:00,
2013-07-09 01:22:00,54.9,41.7,29.92,ESE,103,0.0,0.0,61,0.00,,,0.00,0,Wunderground v.1.15,2013-07-09 07:22:00,
2013-07-09 01:28:00,54.5,41.3,29.92,ESE,106,1.0,3.0,61,0.00,,,0.00,0,Wunderground v.1.15,2013-07-09 07:28:00,
2013-07-09 01:34:00,54.1,41.8,29.93,ESE,106,1.0,2.0,63,0.00,,,0.00,0,Wunderground v.1.15,2013-07-09 07:34:00,
2013-07-09 01:40:00,53.7,42.6,29.93,ESE,119,1.0,3.0,66,0.00,,,0.00,0,Wunderground v.1.15,2013-07-09 07:40:00,
2013-07-09 01:48:00,52.9,41.8,29.93,ESE,115,2.0,3.0,66,0.00,,,0.00,0,Wunderground v.1.15,2013-07-09 07:48:00,
2013-07-09 01:54:00,52.5,41.5,29.93,ESE,115,1.0,1.0,66,0.00,,,0.00,0,Wunderground v.1.15,2013-07-09 07:54:00,
2013-07-09 02:00:00,52.1,41.1,29.93,SE,134,0.0,0.0,66,0.00,,,0.00,0,Wunderground v.1.15,2013-07-09 08:00:00,
2013-07-09 02:06:00,51.7,41.1,29.93,SE,134,0.0,0.0,67,0.00,,,0.00,0,Wunderground v.1.15,2013-07-09 08:06:00,
2013-07-09 02:12:00,51.3,41.1,29.94,SE,134,0.0,0.0,68,0.00,,,0.00,0,Wunderground v.1.15,2013-07-09 08:12:00,
2013-07-09 02:18:00,50.6,39.7,29.93,SE,134,0.0,0.0,66,0.00,,,0.00,0,Wunderground v.1.15,2013-07-09 08:18:00,
2013-07-09 02:24:00,50.0,40.6,29.94,SE,134,0.0,0.0,70,0.00,,,0.00,0,Wunderground v.1.15,2013-07-09 08:24:00,
2013-07-09 02:30:00,49.4,41.5,29.94,SE,134,0.0,0.0,74,0.00,,,0.00,0,Wunderground v.1.15,2013-07-09 08:30:00,
2013-07-09 02:36:00,48.8,40.2,29.94,SE,134,0.0,0.0,72,0.00,,,0.00,0,Wunderground v.1.15,2013-07-09 08:36:00,
2013-07-09 02:42:00,48.4,40.5,29.94,SE,131,0.0,1.0,74,0.00,,,0.00,0,Wunderground v.1.15,2013-07-09 08:42:00,
2013-07-09 02:48:00,47.8,40.6,29.94,ESE,123,2.0,3.0,76,0.00,,,0.00,0,Wunderground v.1.15,2013-07-09 08:48:00,
2013-07-09 02:54:00,47.7,40.8,29.94,ESE,115,2.0,2.0,77,0.00,,,0.00,0,Wunderground v.1.15,2013-07-09 08:54:00,
2013-07-09 03:00:00,47.7,40.8,29.94,ESE,115,1.0,2.0,77,0.00,,,0.00,0,Wunderground v.1.15,2013-07-09 09:00:00,
2013-07-09 03:06:00,47.8,41.3,29.94,ESE,109,1.0,2.0,78,0.00,,,0.00,0,Wunderground v.1.15,2013-07-09 09:06:00,
2013-07-09 03:12:00,47.8,41.3,29.94,ESE,112,1.0,3.0,78,0.00,,,0.00,0,Wunderground v.1.15,2013-07-09 09:12:00,
2013-07-09 03:18:00,47.8,41.3,29.94,ESE,102,2.0,3.0,78,0.00,,,0.00,0,Wunderground v.1.15,2013-07-09 09:18:00,
2013-07-09 03:26:00,47.6,41.1,29.94,ESE,102,1.0,2.0,78,0.00,,,0.00,0,Wunderground v.1.15,2013-07-09 09:26:00,
2013-07-09 03:32:00,47.5,41.0,29.94,ESE,105,2.0,3.0,78,0.00,,,0.00,0,Wunderground v.1.15,2013-07-09 09:32:00,
2013-07-09 03:38:00,47.4,41.2,29.95,ESE,123,2.0,4.0,79,0.00,,,0.00,0,Wunderground v.1.15,2013-07-09 09:38:00,
2013-07-09 03:44:00,47.3,41.1,29.95,ESE,112,2.0,3.0,79,0.00,,,0.00,0,Wunderground v.1.15,2013-07-09 09:44:00,
2013-07-09 03:50:00,47.2,40.4,29.95,East,100,2.0,2.0,77,0.00,,,0.00,0,Wunderground v.1.15,2013-07-09 09:50:00,
2013-07-09 03:56:00,47.2,40.4,29.95,ESE,104,2.0,4.0,77,0.00,,,0.00,0,Wunderground v.1.15,2013-07-09 09:56:00,
2013-07-09 04:02:00,47.1,40.9,29.95,ESE,111,2.0,4.0,79,0.00,,,0.00,0,Wunderground v.1.15,2013-07-09 10:02:00,
2013-07-09 04:08:00,47.0,40.8,29.95,East,92,2.0,4.0,79,0.00,,,0.00,0,Wunderground v.1.15,2013-07-09 10:08:00,
2013-07-09 04:14:00,46.7,40.9,29.95,East,84,3.0,4.0,80,0.00,,,0.00,0,Wunderground v.1.15,2013-07-09 10:14:00,
2013-07-09 04:20:00,46.3,40.5,29.95,East,87,3.0,3.0,80,0.00,,,0.00,0,Wunderground v.1.15,2013-07-09 10:20:00,
2013-07-09 04:28:00,45.8,40.0,29.95,ESE,110,3.0,5.0,80,0.00,,,0.00,0,Wunderground v.1.15,2013-07-09 10:28:00,
2013-07-09 04:34:00,45.5,40.0,29.96,ESE,111,3.0,3.0,81,0.00,,,0.00,0,Wunderground v.1.15,2013-07-09 10:34:00,
2013-07-09 04:40:00,45.4,40.2,29.96,ESE,111,1.0,1.0,82,0.00,,,0.00,0,Wunderground v.1.15,2013-07-09 10:40:00,
2013-07-09 04:48:00,45.2,39.7,29.97,ESE,110,2.0,4.0,81,0.00,,,0.00,0,Wunderground v.1.15,2013-07-09 10:48:00,
2013-07-09 04:56:00,45.0,39.5,29.97,ESE,106,3.0,3.0,81,0.00,,,0.00,0,Wunderground v.1.15,2013-07-09 10:56:00,
2013-07-09 05:04:00,44.9,39.7,29.97,ESE,114,3.0,3.0,82,0.00,,,0.00,0,Wunderground v.1.15,2013-07-09 11:04:00,
2013-07-09 05:10:00,44.8,39.6,29.97,East,92,3.0,3.0,82,0.00,,,0.00,0,Wunderground v.1.15,2013-07-09 11:10:00,
2013-07-09 05:16:00,44.9,39.7,29.97,ESE,113,2.0,4.0,82,0.00,,,0.00,0,Wunderground v.1.15,2013-07-09 11:16:00,
2013-07-09 05:22:00,44.8,39.6,29.98,East,84,3.0,6.0,82,0.00,,,0.00,0,Wunderground v.1.15,2013-07-09 11:22:00,
2013-07-09 05:28:00,44.6,39.1,29.98,East,89,4.0,6.0,81,0.00,,,0.00,0,Wunderground v.1.15,2013-07-09 11:28:00,
2013-07-09 05:34:00,44.3,39.2,29.98,ESE,109,4.0,4.0,82,0.00,,,0.00,0,Wunderground v.1.15,2013-07-09 11:34:00,
2013-07-09 05:40:00,43.9,38.8,29.98,East,84,4.0,4.0,82,0.00,,,0.00,0,Wunderground v.1.15,2013-07-09 11:40:00,
2013-07-09 05:46:00,43.7,38.9,29.99,ESE,105,3.0,5.0,83,0.00,,,0.00,0,Wunderground v.1.15,2013-07-09 11:46:00,
2013-07-09 05:52:00,43.5,38.7,29.98,East,85,3.0,3.0,83,0.00,,,0.00,5,Wunderground v.1.15,2013-07-09 11:52:00,
2013-07-09 05:58:00,43.4,38.9,29.99,East,92,3.0,3.0,84,0.00,,,0.00,7,Wunderground v.1.15,2013-07-09 11:58:00,
2013-07-09 06:04:00,43.3,38.8,29.99,SE,127,3.0,4.0,84,0.00,,,0.00,11,Wunderground v.1.15,2013-07-09 12:04:00,
2013-07-09 06:10:00,43.3,38.8,29.99,SE,126,2.0,2.0,84,0.00,,,0.00,12,Wunderground v.1.15,2013-07-09 12:10:00,
2013-07-09 06:16:00,43.3,38.8,29.99,ESE,123,2.0,4.0,84,0.00,,,0.00,21,Wunderground v.1.15,2013-07-09 12:16:00,
2013-07-09 06:22:00,43.4,39.2,29.99,East,92,3.0,4.0,85,0.00,,,0.00,35,Wunderground v.1.15,2013-07-09 12:22:00,
2013-07-09 06:28:00,43.5,39.0,30.00,East,87,3.0,5.0,84,0.00,,,0.00,47,Wunderground v.1.15,2013-07-09 12:28:00,
2013-07-09 06:34:00,43.7,39.2,30.00,East,84,3.0,4.0,84,0.00,,,0.00,60,Wunderground v.1.15,2013-07-09 12:34:00,
2013-07-09 06:40:00,44.0,39.8,30.00,East,82,3.0,3.0,85,0.00,,,0.00,76,Wunderground v.1.15,2013-07-09 12:40:00,
2013-07-09 06:46:00,44.6,40.4,30.00,ENE,71,2.0,3.0,85,0.00,,,0.00,91,Wunderground v.1.15,2013-07-09 12:46:00,
2013-07-09 06:52:00,45.3,41.4,30.00,ENE,74,1.0,3.0,86,0.00,,,0.00,100,Wunderground v.1.15,2013-07-09 12:52:00,
2013-07-09 06:58:00,46.0,41.4,30.00,ESE,113,3.0,6.0,84,0.00,,,0.00,100,Wunderground v.1.15,2013-07-09 12:58:00,
2013-07-09 07:04:00,46.8,41.9,30.01,East,96,3.0,4.0,83,0.00,,,0.00,86,Wunderground v.1.15,2013-07-09 13:04:00,
2013-07-09 07:10:00,47.8,42.6,30.01,East,81,3.0,4.0,82,0.00,,,0.00,63,Wunderground v.1.15,2013-07-09 13:10:00,
2013-07-09 07:16:00,48.7,43.1,30.00,East,99,4.0,4.0,81,0.00,,,0.00,42,Wunderground v.1.15,2013-07-09 13:16:00,
2013-07-09 07:22:00,49.6,43.4,30.00,ENE,61,4.0,6.0,79,0.00,,,0.00,28,Wunderground v.1.15,2013-07-09 13:22:00,
2013-07-09 07:28:00,50.7,43.4,30.00,ENE,58,5.0,6.0,76,0.00,,,0.00,28,Wunderground v.1.15,2013-07-09 13:28:00,
2013-07-09 07:34:00,52.0,43.3,30.00,NE,46,6.0,11.0,72,0.00,,,0.00,30,Wunderground v.1.15,2013-07-09 13:34:00,
2013-07-09 07:40:00,53.3,43.8,30.01,NE,55,8.0,8.0,70,0.00,,,0.00,30,Wunderground v.1.15,2013-07-09 13:40:00,
2013-07-09 07:46:00,54.2,44.6,30.01,NE,51,5.0,8.0,70,0.00,,,0.00,30,Wunderground v.1.15,2013-07-09 13:46:00,
2013-07-09 07:52:00,55.0,44.6,30.01,NE,51,1.0,2.0,68,0.00,,,0.00,32,Wunderground v.1.15,2013-07-09 13:52:00,
2013-07-09 07:58:00,55.7,45.3,30.01,NE,55,1.0,2.0,68,0.00,,,0.00,32,Wunderground v.1.15,2013-07-09 13:58:00,
2013-07-09 08:04:00,56.4,45.2,30.01,NE,55,1.0,1.0,66,0.00,,,0.00,32,Wunderground v.1.15,2013-07-09 14:04:00,
2013-07-09 08:10:00,57.1,45.0,30.01,NE,55,0.0,0.0,64,0.00,,,0.00,33,Wunderground v.1.15,2013-07-09 14:10:00,
2013-07-09 08:16:00,58.0,45.9,30.01,NE,55,0.0,0.0,64,0.00,,,0.00,33,Wunderground v.1.15,2013-07-09 14:16:00,
2013-07-09 08:22:00,59.1,46.9,30.01,NE,55,0.0,0.0,64,0.00,,,0.00,33,Wunderground v.1.15,2013-07-09 14:22:00,
2013-07-09 08:28:00,60.2,47.6,30.01,NE,55,1.0,1.0,63,0.00,,,0.00,33,Wunderground v.1.15,2013-07-09 14:28:00,
2013-07-09 08:34:00,61.4,48.3,30.01,NE,55,0.0,0.0,62,0.00,,,0.00,40,Wunderground v.1.15,2013-07-09 14:34:00,
2013-07-09 08:40:00,62.7,47.7,30.01,NE,55,1.0,1.0,58,0.00,,,0.00,81,Wunderground v.1.15,2013-07-09 14:40:00,
2013-07-09 08:46:00,63.8,46.3,30.01,NE,55,1.0,1.0,53,0.00,,,0.00,169,Wunderground v.1.15,2013-07-09 14:46:00,
2013-07-09 08:52:00,64.8,48.2,30.01,NE,55,0.0,0.0,55,0.00,,,0.00,292,Wunderground v.1.15,2013-07-09 14:52:00,
2013-07-09 08:58:00,66.0,47.3,30.01,NE,55,0.0,0.0,51,0.00,,,0.00,397,Wunderground v.1.15,2013-07-09 14:58:00,
2013-07-09 09:04:00,66.9,47.6,30.01,NE,55,0.0,2.0,50,0.00,,,0.00,482,Wunderground v.1.15,2013-07-09 15:04:00,
2013-07-09 09:10:00,67.6,48.8,30.01,NE,55,1.0,1.0,51,0.00,,,0.00,513,Wunderground v.1.15,2013-07-09 15:10:00,
2013-07-09 09:16:00,68.4,49.0,30.01,NE,55,1.0,1.0,50,0.00,,,0.00,527,Wunderground v.1.15,2013-07-09 15:16:00,
2013-07-09 09:22:00,69.4,47.7,30.01,NE,55,0.0,1.0,46,0.00,,,0.00,547,Wunderground v.1.15,2013-07-09 15:22:00,
2013-07-09 09:30:00,70.3,48.5,30.00,NE,55,0.0,0.0,46,0.00,,,0.00,575,Wunderground v.1.15,2013-07-09 15:30:00,
2013-07-09 09:36:00,71.2,48.2,30.00,East,84,0.0,3.0,44,0.00,,,0.00,591,Wunderground v.1.15,2013-07-09 15:36:00,
2013-07-09 09:42:00,72.1,47.1,30.00,East,84,1.0,1.0,41,0.00,,,0.00,608,Wunderground v.1.15,2013-07-09 15:42:00,
2013-07-09 09:48:00,72.8,48.4,30.00,East,84,1.0,1.0,42,0.00,,,0.00,624,Wunderground v.1.15,2013-07-09 15:48:00,
2013-07-09 09:54:00,73.4,46.9,30.00,East,81,2.0,4.0,39,0.00,,,0.00,643,Wunderground v.1.15,2013-07-09 15:54:00,
2013-07-09 10:00:00,73.8,48.6,30.00,East,80,1.0,2.0,41,0.00,,,0.00,659,Wunderground v.1.15,2013-07-09 16:00:00,
2013-07-09 10:06:00,74.2,44.0,30.00,East,86,1.0,2.0,34,0.00,,,0.00,677,Wunderground v.1.15,2013-07-09 16:06:00,
2013-07-09 10:14:00,74.5,42.7,30.00,East,86,0.0,2.0,32,0.00,,,0.00,696,Wunderground v.1.15,2013-07-09 16:14:00,
2013-07-09 10:20:00,74.3,43.3,29.99,North,355,1.0,1.0,33,0.00,,,0.00,712,Wunderground v.1.15,2013-07-09 16:20:00,
2013-07-09 10:26:00,74.0,45.3,29.99,NNW,348,2.0,4.0,36,0.00,,,0.00,724,Wunderground v.1.15,2013-07-09 16:26:00,
2013-07-09 10:32:00,74.1,43.9,29.99,North,355,2.0,4.0,34,0.00,,,0.00,740,Wunderground v.1.15,2013-07-09 16:32:00,
2013-07-09 10:38:00,74.3,45.6,29.99,NNW,344,2.0,4.0,36,0.00,,,0.00,756,Wunderground v.1.15,2013-07-09 16:38:00,
2013-07-09 10:44:00,74.7,46.0,29.99,North,355,2.0,2.0,36,0.00,,,0.00,775,Wunderground v.1.15,2013-07-09 16:44:00,
2013-07-09 10:50:00,75.5,44.4,29.99,North,351,1.0,1.0,33,0.00,,,0.00,788,Wunderground v.1.15,2013-07-09 16:50:00,
2013-07-09 10:56:00,75.6,43.7,29.99,North,355,2.0,3.0,32,0.00,,,0.00,800,Wunderground v.1.15,2013-07-09 16:56:00,
2013-07-09 11:02:00,75.9,43.9,29.99,North,355,1.0,1.0,32,0.00,,,0.00,816,Wunderground v.1.15,2013-07-09 17:02:00,
2013-07-09 11:08:00,76.4,43.5,29.99,NE,53,2.0,4.0,31,0.00,,,0.00,828,Wunderground v.1.15,2013-07-09 17:08:00,
2013-07-09 11:14:00,76.7,43.8,29.99,NE,51,2.0,4.0,31,0.00,,,0.00,840,Wunderground v.1.15,2013-07-09 17:14:00,
2013-07-09 11:20:00,77.0,43.2,29.99,NE,41,2.0,2.0,30,0.00,,,0.00,851,Wunderground v.1.15,2013-07-09 17:20:00,
2013-07-09 11:26:00,77.5,41.8,29.98,NE,45,2.0,3.0,28,0.00,,,0.00,863,Wunderground v.1.15,2013-07-09 17:26:00,
2013-07-09 11:32:00,77.9,43.1,29.98,NE,38,2.0,2.0,29,0.00,,,0.00,877,Wunderground v.1.15,2013-07-09 17:32:00,
2013-07-09 11:38:00,78.3,44.3,29.98,NE,45,2.0,3.0,30,0.00,,,0.00,889,Wunderground v.1.15,2013-07-09 17:38:00,
2013-07-09 11:44:00,78.7,41.9,29.98,NNE,19,1.0,4.0,27,0.00,,,0.00,900,Wunderground v.1.15,2013-07-09 17:44:00,
2013-07-09 11:50:00,78.9,40.1,29.98,NE,36,2.0,2.0,25,0.00,,,0.00,909,Wunderground v.1.15,2013-07-09 17:50:00,
2013-07-09 11:56:00,79.3,44.3,29.98,WSW,257,2.0,5.0,29,0.00,,,0.00,919,Wunderground v.1.15,2013-07-09 17:56:00,
2013-07-09 12:02:00,79.9,45.7,29.97,West,262,5.0,6.0,30,0.00,,,0.00,926,Wunderground v.1.15,2013-07-09 18:02:00,
2013-07-09 12:08:00,80.5,46.2,29.97,SW,232,6.0,6.0,30,0.00,,,0.00,933,Wunderground v.1.15,2013-07-09 18:08:00,
2013-07-09 12:14:00,80.9,45.7,29.97,WSW,246,5.0,7.0,29,0.00,,,0.00,942,Wunderground v.1.15,2013-07-09 18:14:00,
2013-07-09 12:20:00,81.3,45.1,29.97,South,180,4.0,5.0,28,0.00,,,0.00,954,Wunderground v.1.15,2013-07-09 18:20:00,
2013-07-09 12:26:00,81.9,42.6,29.96,South,180,2.0,5.0,25,0.00,,,0.00,958,Wunderground v.1.15,2013-07-09 18:26:00,
2013-07-09 12:32:00,82.6,47.1,29.96,West,274,2.0,7.0,29,0.00,,,0.00,967,Wunderground v.1.15,2013-07-09 18:32:00,
2013-07-09 12:38:00,82.8,48.2,29.96,West,264,4.0,7.0,30,0.00,,,0.00,976,Wunderground v.1.15,2013-07-09 18:38:00,
2013-07-09 12:44:00,83.3,46.8,29.96,West,267,5.0,5.0,28,0.00,,,0.00,981,Wunderground v.1.15,2013-07-09 18:44:00,
2013-07-09 12:50:00,83.9,45.3,29.96,West,269,4.0,4.0,26,0.00,,,0.00,990,Wunderground v.1.15,2013-07-09 18:50:00,
2013-07-09 12:56:00,84.6,49.7,29.96,West,264,4.0,4.0,30,0.00,,,0.00,993,Wunderground v.1.15,2013-07-09 18:56:00,
2013-07-09 13:02:00,85.0,47.3,29.96,West,263,4.0,8.0,27,0.00,,,0.00,997,Wunderground v.1.15,2013-07-09 19:02:00,
2013-07-09 13:08:00,84.8,46.1,29.95,West,272,4.0,8.0,26,0.00,,,0.00,998,Wunderground v.1.15,2013-07-09 19:08:00,
2013-07-09 13:14:00,84.4,43.7,29.95,West,279,4.0,4.0,24,0.00,,,0.00,1000,Wunderground v.1.15,2013-07-09 19:14:00,
2013-07-09 13:20:00,84.1,46.5,29.95,West,281,5.0,5.0,27,0.00,,,0.00,1004,Wunderground v.1.15,2013-07-09 19:20:00,
2013-07-09 13:26:00,83.7,46.2,29.94,WNW,286,5.0,5.0,27,0.00,,,0.00,1007,Wunderground v.1.15,2013-07-09 19:26:00,
2013-07-09 13:32:00,83.5,48.8,29.94,WSW,243,5.0,6.0,30,0.00,,,0.00,1009,Wunderground v.1.15,2013-07-09 19:32:00,
2013-07-09 13:38:00,83.1,45.7,29.94,NW,315,6.0,8.0,27,0.00,,,0.00,1013,Wunderground v.1.15,2013-07-09 19:38:00,
2013-07-09 13:44:00,82.3,45.0,29.94,West,269,6.0,8.0,27,0.00,,,0.00,1011,Wunderground v.1.15,2013-07-09 19:44:00,
2013-07-09 13:50:00,82.1,47.6,29.94,West,267,6.0,6.0,30,0.00,,,0.00,1011,Wunderground v.1.15,2013-07-09 19:50:00,
2013-07-09 13:56:00,82.4,46.0,29.93,West,267,6.0,9.0,28,0.00,,,0.00,1013,Wunderground v.1.15,2013-07-09 19:56:00,
2013-07-09 14:02:00,82.4,46.0,29.93,WNW,283,6.0,9.0,28,0.00,,,0.00,1011,Wunderground v.1.15,2013-07-09 20:02:00,
2013-07-09 14:08:00,82.4,46.9,29.93,West,275,6.0,9.0,29,0.00,,,0.00,1005,Wunderground v.1.15,2013-07-09 20:08:00,
2013-07-09 14:14:00,82.4,46.9,29.93,West,275,7.0,7.0,29,0.00,,,0.00,1005,Wunderground v.1.15,2013-07-09 20:14:00,
2013-07-09 14:22:00,82.5,47.9,29.93,WNW,301,7.0,7.0,30,0.00,,,0.00,997,Wunderground v.1.15,2013-07-09 20:22:00,
2013-07-09 14:30:00,82.6,48.9,29.92,West,278,6.0,6.0,31,0.00,,,0.00,990,Wunderground v.1.15,2013-07-09 20:30:00,
2013-07-09 14:36:00,82.7,47.2,29.92,WNW,288,7.0,8.0,29,0.00,,,0.00,988,Wunderground v.1.15,2013-07-09 20:36:00,
2013-07-09 14:42:00,82.8,47.3,29.92,WNW,297,7.0,9.0,29,0.00,,,0.00,984,Wunderground v.1.15,2013-07-09 20:42:00,
2013-07-09 14:48:00,83.0,49.2,29.92,WNW,289,6.0,9.0,31,0.00,,,0.00,976,Wunderground v.1.15,2013-07-09 20:48:00,
2013-07-09 14:54:00,83.2,50.3,29.92,WNW,292,6.0,8.0,32,0.00,,,0.00,969,Wunderground v.1.15,2013-07-09 20:54:00,
2013-07-09 15:00:00,83.8,48.1,29.91,WNW,286,6.0,6.0,29,0.00,,,0.00,963,Wunderground v.1.15,2013-07-09 21:00:00,
2013-07-09 15:06:00,84.3,47.6,29.91,West,275,7.0,9.0,28,0.00,,,0.00,958,Wunderground v.1.15,2013-07-09 21:06:00,
2013-07-09 15:12:00,84.1,46.5,29.90,WNW,301,6.0,7.0,27,0.00,,,0.00,947,Wunderground v.1.15,2013-07-09 21:12:00,
2013-07-09 15:18:00,84.0,46.4,29.90,WNW,303,6.0,10.0,27,0.00,,,0.00,939,Wunderground v.1.15,2013-07-09 21:18:00,
2013-07-09 15:24:00,84.3,48.6,29.90,West,273,7.0,10.0,29,0.00,,,0.00,926,Wunderground v.1.15,2013-07-09 21:24:00,
2013-07-09 15:30:00,84.8,48.1,29.90,West,269,6.0,6.0,28,0.00,,,0.00,921,Wunderground v.1.15,2013-07-09 21:30:00,
2013-07-09 15:36:00,85.2,48.4,29.90,West,277,4.0,6.0,28,0.00,,,0.00,911,Wunderground v.1.15,2013-07-09 21:36:00,
2013-07-09 15:42:00,85.4,46.6,29.90,WNW,284,4.0,4.0,26,0.00,,,0.00,904,Wunderground v.1.15,2013-07-09 21:42:00,
2013-07-09 15:48:00,85.8,50.8,29.90,West,278,4.0,4.0,30,0.00,,,0.00,893,Wunderground v.1.15,2013-07-09 21:48:00,
2013-07-09 15:54:00,86.3,47.4,29.89,WNW,286,4.0,4.0,26,0.00,,,0.00,881,Wunderground v.1.15,2013-07-09 21:54:00,
2013-07-09 16:00:00,86.0,47.1,29.89,NW,313,4.0,4.0,26,0.00,,,0.00,861,Wunderground v.1.15,2013-07-09 22:00:00,
2013-07-09 16:06:00,85.8,46.9,29.89,NW,304,4.0,5.0,26,0.00,,,0.00,849,Wunderground v.1.15,2013-07-09 22:06:00,
2013-07-09 16:12:00,85.7,47.9,29.89,NNE,16,5.0,5.0,27,0.00,,,0.00,838,Wunderground v.1.15,2013-07-09 22:12:00,
2013-07-09 16:18:00,85.5,44.6,29.88,NE,49,6.0,7.0,24,0.00,,,0.00,828,Wunderground v.1.15,2013-07-09 22:18:00,
2013-07-09 16:24:00,85.2,46.4,29.88,North,11,6.0,6.0,26,0.00,,,0.00,817,Wunderground v.1.15,2013-07-09 22:24:00,
2013-07-09 16:30:00,84.9,47.2,29.88,West,273,3.0,3.0,27,0.00,,,0.00,805,Wunderground v.1.15,2013-07-09 22:30:00,
2013-07-09 16:36:00,84.7,45.0,29.88,NNW,333,3.0,6.0,25,0.00,,,0.00,791,Wunderground v.1.15,2013-07-09 22:36:00,
2013-07-09 16:42:00,84.6,47.9,29.88,WNW,296,4.0,6.0,28,0.00,,,0.00,777,Wunderground v.1.15,2013-07-09 22:42:00,
2013-07-09 16:48:00,84.9,44.1,29.88,NW,325,2.0,6.0,24,0.00,,,0.00,766,Wunderground v.1.15,2013-07-09 22:48:00,
2013-07-09 16:54:00,85.6,48.8,29.88,WSW,249,3.0,11.0,28,0.00,,,0.00,754,Wunderground v.1.15,2013-07-09 22:54:00,
2013-07-09 17:00:00,86.3,48.4,29.88,WNW,283,5.0,5.0,27,0.00,,,0.00,737,Wunderground v.1.15,2013-07-09 23:00:00,
2013-07-09 17:06:00,86.6,44.4,29.88,WNW,284,2.0,5.0,23,0.00,,,0.00,726,Wunderground v.1.15,2013-07-09 23:06:00,
2013-07-09 17:12:00,87.1,45.9,29.88,WNW,284,2.0,3.0,24,0.00,,,0.00,712,Wunderground v.1.15,2013-07-09 23:12:00,
2013-07-09 17:18:00,87.7,50.6,29.88,West,261,3.0,9.0,28,0.00,,,0.00,694,Wunderground v.1.15,2013-07-09 23:18:00,
2013-07-09 17:24:00,87.9,47.7,29.87,WNW,282,5.0,5.0,25,0.00,,,0.00,680,Wunderground v.1.15,2013-07-09 23:24:00,
2013-07-09 17:30:00,87.8,49.7,29.87,WNW,283,4.0,7.0,27,0.00,,,0.00,666,Wunderground v.1.15,2013-07-09 23:30:00,
2013-07-09 17:38:00,87.7,51.5,29.87,West,261,5.0,7.0,29,0.00,,,0.00,645,Wunderground v.1.15,2013-07-09 23:38:00,
2013-07-09 17:48:00,88.2,50.0,29.87,West,265,5.0,5.0,27,0.00,,,0.00,613,Wunderground v.1.15,2013-07-09 23:48:00,
2013-07-09 17:54:00,88.1,47.9,29.86,West,264,5.0,5.0,25,0.00,,,0.00,598,Wunderground v.1.15,2013-07-09 23:54:00,
2013-07-09 18:00:00,88.1,48.9,29.86,West,266,4.0,4.0,26,0.00,,,0.00,580,Wunderground v.1.15,2013-07-10 00:00:00,
2013-07-09 18:06:00,88.1,48.9,29.86,West,273,6.0,7.0,26,0.00,,,0.00,563,Wunderground v.1.15,2013-07-10 00:06:00,
2013-07-09 18:12:00,87.6,48.5,29.86,WSW,257,6.0,7.0,26,0.00,,,0.00,545,Wunderground v.1.15,2013-07-10 00:12:00,
2013-07-09 18:18:00,87.2,49.1,29.86,West,275,6.0,7.0,27,0.00,,,0.00,524,Wunderground v.1.15,2013-07-10 00:18:00,
2013-07-09 18:24:00,86.8,48.8,29.86,WNW,287,5.0,7.0,27,0.00,,,0.00,508,Wunderground v.1.15,2013-07-10 00:24:00,
2013-07-09 18:30:00,86.5,50.5,29.85,WSW,258,5.0,5.0,29,0.00,,,0.00,489,Wunderground v.1.15,2013-07-10 00:30:00,
2013-07-09 18:38:00,86.2,52.9,29.85,West,266,5.0,6.0,32,0.00,,,0.00,464,Wunderground v.1.15,2013-07-10 00:38:00,
2013-07-09 18:44:00,85.9,50.0,29.85,West,281,5.0,5.0,29,0.00,,,0.00,443,Wunderground v.1.15,2013-07-10 00:44:00,
2013-07-09 18:50:00,85.5,49.6,29.85,WSW,240,6.0,6.0,29,0.00,,,0.00,425,Wunderground v.1.15,2013-07-10 00:50:00,
2013-07-09 18:56:00,85.1,50.2,29.85,West,268,6.0,7.0,30,0.00,,,0.00,404,Wunderground v.1.15,2013-07-10 00:56:00,
2013-07-09 19:02:00,84.5,50.5,29.85,West,264,6.0,6.0,31,0.00,,,0.00,387,Wunderground v.1.15,2013-07-10 01:02:00,
2013-07-09 19:08:00,84.1,47.5,29.85,WSW,244,6.0,8.0,28,0.00,,,0.00,367,Wunderground v.1.15,2013-07-10 01:08:00,
2013-07-09 19:14:00,83.8,49.1,29.85,WSW,252,6.0,10.0,30,0.00,,,0.00,350,Wunderground v.1.15,2013-07-10 01:14:00,
2013-07-09 19:20:00,83.4,49.6,29.85,WSW,252,6.0,7.0,31,0.00,,,0.00,329,Wunderground v.1.15,2013-07-10 01:20:00,
2013-07-09 19:26:00,82.9,48.3,29.84,WSW,255,6.0,12.0,30,0.00,,,0.00,306,Wunderground v.1.15,2013-07-10 01:26:00,
2013-07-09 19:32:00,82.3,47.8,29.85,WSW,258,7.0,8.0,30,0.00,,,0.00,288,Wunderground v.1.15,2013-07-10 01:32:00,
2013-07-09 19:38:00,81.8,49.1,29.85,WSW,252,6.0,8.0,32,0.00,,,0.00,267,Wunderground v.1.15,2013-07-10 01:38:00,
2013-07-09 19:44:00,81.5,49.6,29.85,West,265,5.0,6.0,33,0.00,,,0.00,244,Wunderground v.1.15,2013-07-10 01:44:00,
2013-07-09 19:50:00,81.1,49.3,29.85,West,263,4.0,6.0,33,0.00,,,0.00,223,Wunderground v.1.15,2013-07-10 01:50:00,
2013-07-09 19:56:00,80.7,48.9,29.85,WSW,257,5.0,7.0,33,0.00,,,0.00,202,Wunderground v.1.15,2013-07-10 01:56:00,
2013-07-09 20:06:00,80.0,49.1,29.85,West,261,4.0,5.0,34,0.00,,,0.00,165,Wunderground v.1.15,2013-07-10 02:06:00,
2013-07-09 20:14:00,79.5,50.9,29.85,West,259,3.0,4.0,37,0.00,,,0.00,137,Wunderground v.1.15,2013-07-10 02:14:00,
2013-07-09 20:22:00,78.9,49.7,29.85,West,259,3.0,4.0,36,0.00,,,0.00,113,Wunderground v.1.15,2013-07-10 02:22:00,
2013-07-09 20:32:00,78.2,49.1,29.85,West,259,3.0,3.0,36,0.00,,,0.00,83,Wunderground v.1.15,2013-07-10 02:32:00,
2013-07-09 20:40:00,77.4,49.8,29.85,West,259,2.0,2.0,38,0.00,,,0.00,62,Wunderground v.1.15,2013-07-10 02:40:00,
2013-07-09 20:50:00,76.6,51.1,29.85,West,259,1.0,1.0,41,0.00,,,0.00,39,Wunderground v.1.15,2013-07-10 02:50:00,
2013-07-09 20:56:00,75.9,50.5,29.85,West,259,0.0,1.0,41,0.00,,,0.00,28,Wunderground v.1.15,2013-07-10 02:56:00,
2013-07-09 21:02:00,75.0,49.0,29.86,West,259,0.0,0.0,40,0.00,,,0.00,19,Wunderground v.1.15,2013-07-10 03:02:00,
2013-07-09 21:08:00,74.2,49.0,29.86,West,259,0.0,0.0,41,0.00,,,0.00,12,Wunderground v.1.15,2013-07-10 03:08:00,
2013-07-09 21:14:00,73.3,48.2,29.86,West,259,0.0,0.0,41,0.00,,,0.00,9,Wunderground v.1.15,2013-07-10 03:14:00,
2013-07-09 21:20:00,72.6,48.2,29.87,West,259,0.0,0.0,42,0.00,,,0.00,7,Wunderground v.1.15,2013-07-10 03:20:00,
2013-07-09 21:26:00,71.7,48.6,29.86,West,259,0.0,0.0,44,0.00,,,0.00,5,Wunderground v.1.15,2013-07-10 03:26:00,
2013-07-09 21:32:00,70.8,50.1,29.86,West,259,0.0,0.0,48,0.00,,,0.00,0,Wunderground v.1.15,2013-07-10 03:32:00,
2013-07-09 21:38:00,70.0,47.7,29.87,West,259,0.0,0.0,45,0.00,,,0.00,0,Wunderground v.1.15,2013-07-10 03:38:00,
2013-07-09 21:44:00,69.0,46.8,29.87,West,259,0.0,0.0,45,0.00,,,0.00,0,Wunderground v.1.15,2013-07-10 03:44:00,
2013-07-09 21:50:00,68.0,46.4,29.87,West,259,0.0,0.0,46,0.00,,,0.00,0,Wunderground v.1.15,2013-07-10 03:50:00,
2013-07-09 21:56:00,67.0,48.3,29.87,West,259,0.0,0.0,51,0.00,,,0.00,0,Wunderground v.1.15,2013-07-10 03:56:00,
2013-07-09 22:02:00,65.9,46.7,29.88,West,259,0.0,0.0,50,0.00,,,0.00,0,Wunderground v.1.15,2013-07-10 04:02:00,
2013-07-09 22:08:00,64.9,45.8,29.88,West,259,0.0,0.0,50,0.00,,,0.00,0,Wunderground v.1.15,2013-07-10 04:08:00,
2013-07-09 22:14:00,64.0,45.5,29.88,West,259,0.0,2.0,51,0.00,,,0.00,0,Wunderground v.1.15,2013-07-10 04:14:00,
2013-07-09 22:22:00,62.8,46.9,29.88,West,259,0.0,0.0,56,0.00,,,0.00,0,Wunderground v.1.15,2013-07-10 04:22:00,
2013-07-09 22:30:00,61.7,45.4,29.88,West,259,0.0,0.0,55,0.00,,,0.00,0,Wunderground v.1.15,2013-07-10 04:30:00,
2013-07-09 22:36:00,61.0,46.1,29.89,West,259,0.0,0.0,58,0.00,,,0.00,0,Wunderground v.1.15,2013-07-10 04:36:00,
2013-07-09 22:42:00,60.3,43.6,29.89,West,259,0.0,0.0,54,0.00,,,0.00,0,Wunderground v.1.15,2013-07-10 04:42:00,
2013-07-09 22:48:00,59.6,43.4,29.89,West,259,0.0,0.0,55,0.00,,,0.00,0,Wunderground v.1.15,2013-07-10 04:48:00,
2013-07-09 22:54:00,58.9,43.7,29.89,West,259,0.0,0.0,57,0.00,,,0.00,0,Wunderground v.1.15,2013-07-10 04:54:00,
2013-07-09 23:00:00,58.4,43.7,29.89,West,259,0.0,0.0,58,0.00,,,0.00,0,Wunderground v.1.15,2013-07-10 05:00:00,
2013-07-09 23:06:00,58.0,43.7,29.90,West,259,0.0,0.0,59,0.00,,,0.00,0,Wunderground v.1.15,2013-07-10 05:06:00,
2013-07-09 23:12:00,57.7,43.0,29.90,West,259,0.0,0.0,58,0.00,,,0.00,0,Wunderground v.1.15,2013-07-10 05:12:00,
2013-07-09 23:18:00,57.5,42.4,29.90,West,259,0.0,0.0,57,0.00,,,0.00,0,Wunderground v.1.15,2013-07-10 05:18:00,
2013-07-09 23:24:00,57.3,44.8,29.90,West,259,0.0,0.0,63,0.00,,,0.00,0,Wunderground v.1.15,2013-07-10 05:24:00,
2013-07-09 23:30:00,57.0,43.7,29.90,West,259,0.0,0.0,61,0.00,,,0.00,0,Wunderground v.1.15,2013-07-10 05:30:00,
2013-07-09 23:36:00,56.6,42.4,29.91,West,259,1.0,2.0,59,0.00,,,0.00,0,Wunderground v.1.15,2013-07-10 05:36:00,
2013-07-09 23:42:00,56.3,42.1,29.91,West,259,1.0,1.0,59,0.00,,,0.00,0,Wunderground v.1.15,2013-07-10 05:42:00,
2013-07-09 23:48:00,56.2,42.1,29.91,West,259,0.0,1.0,59,0.00,,,0.00,0,Wunderground v.1.15,2013-07-10 05:48:00,
2013-07-09 23:54:00,56.0,41.4,29.90,West,259,0.0,0.0,58,0.00,,,0.00,0,Wunderground v.1.15,2013-07-10 05:54:00,